createdAt,value
2022-12-05T00:04:23.999Z,37.47
2022-12-05T00:14:28.309Z,38.90
2022-12-05T00:24:31.358Z,35.60
2022-12-05T00:34:36.193Z,41.60
2022-12-05T00:44:39.720Z,39.73
2022-12-05T00:54:44.614Z,41.97
2022-12-05T01:04:47.768Z,35.23
2022-12-05T01:14:52.158Z,37.50
2022-12-05T01:24:55.205Z,35.67
2022-12-05T01:34:59.726Z,34.57
2022-12-05T01:45:09.288Z,30.10
2022-12-05T01:55:17.928Z,24.43
2022-12-05T02:05:24.287Z,24.93
2022-12-05T02:15:43.067Z,24.57
2022-12-05T02:26:16.783Z,25.00
2022-12-05T02:36:27.009Z,16.33
2022-12-05T02:46:33.484Z,20.53
2022-12-05T02:56:39.500Z,17.50
2022-12-05T03:06:46.811Z,19.63
2022-12-05T03:16:54.113Z,18.27
2022-12-05T03:27:08.497Z,16.73
2022-12-05T03:37:19.473Z,16.37
2022-12-05T03:47:27.870Z,15.17
2022-12-05T03:57:36.884Z,15.50
2022-12-05T04:07:41.844Z,14.60
2022-12-05T04:17:53.790Z,15.10
2022-12-05T04:28:06.911Z,16.03
2022-12-05T04:38:14.929Z,14.90
2022-12-05T04:48:19.358Z,16.60
2022-12-05T04:58:25.559Z,15.77
2022-12-05T05:08:30.370Z,21.73
2022-12-05T05:18:34.960Z,14.83
2022-12-05T05:28:38.103Z,16.03
2022-12-05T05:38:44.103Z,16.60
2022-12-05T05:48:47.506Z,15.53
2022-12-05T05:58:56.765Z,19.60
2022-12-05T06:08:59.888Z,13.20
2022-12-05T06:19:04.382Z,16.83
2022-12-05T06:29:07.327Z,15.17
2022-12-05T06:39:11.419Z,14.73
2022-12-05T06:49:14.517Z,12.90
2022-12-05T06:59:18.906Z,16.10
2022-12-05T07:09:44.840Z,13.70
2022-12-05T07:19:50.526Z,13.53
2022-12-05T07:29:54.051Z,16.50
2022-12-05T07:39:58.803Z,14.97
2022-12-05T07:50:02.078Z,18.30
2022-12-05T08:00:08.448Z,16.60
2022-12-05T08:10:15.948Z,15.07
2022-12-05T08:20:20.295Z,16.57
2022-12-05T08:30:23.079Z,15.90
2022-12-05T08:40:27.491Z,16.27
2022-12-05T08:50:30.537Z,15.77
2022-12-05T09:00:34.990Z,16.07
2022-12-05T09:10:38.960Z,21.57
2022-12-05T09:20:43.281Z,18.80
2022-12-05T09:30:46.206Z,21.17
2022-12-05T09:40:58.848Z,21.40
2022-12-05T09:51:04.412Z,20.90
2022-12-05T10:01:22.744Z,19.60
2022-12-05T10:11:35.567Z,20.70
2022-12-05T10:21:48.658Z,28.80
2022-12-05T10:31:58.887Z,27.50
2022-12-05T10:42:04.057Z,22.27
2022-12-05T10:52:07.546Z,13.87
2022-12-05T11:02:23.272Z,14.50
2022-12-05T11:12:30.180Z,18.20
2022-12-05T11:22:36.620Z,16.60
2022-12-05T11:32:40.806Z,17.63
2022-12-05T11:43:03.019Z,22.33
2022-12-05T11:53:22.547Z,21.57
2022-12-05T12:03:51.647Z,21.47
2022-12-05T12:14:02.529Z,21.00
2022-12-05T12:24:18.763Z,19.87
2022-12-05T12:34:46.008Z,24.70
2022-12-05T12:45:18.698Z,21.77
2022-12-05T12:55:26.065Z,22.07
2022-12-05T13:05:35.972Z,22.40
2022-12-05T13:15:41.984Z,22.30
2022-12-05T13:25:48.572Z,25.20
2022-12-05T13:36:17.038Z,24.63
2022-12-05T13:46:28.091Z,27.77
2022-12-05T13:56:50.582Z,26.87
2022-12-05T14:06:59.598Z,23.27
2022-12-05T14:17:04.489Z,25.00
2022-12-05T14:27:17.965Z,28.93
2022-12-05T14:37:29.097Z,31.53
2022-12-05T14:47:35.542Z,31.93
2022-12-05T14:57:48.426Z,31.63
2022-12-05T15:07:55.112Z,35.20
2022-12-05T15:18:05.111Z,34.73
2022-12-05T15:28:20.699Z,37.07
2022-12-05T15:38:28.550Z,35.87
2022-12-05T15:48:32.786Z,38.47
2022-12-05T15:58:40.916Z,37.33
2022-12-05T16:08:49.511Z,33.87
2022-12-05T16:18:56.466Z,37.60
2022-12-05T16:29:02.246Z,39.97
2022-12-05T16:39:19.162Z,43.07
2022-12-05T16:49:40.057Z,36.77
2022-12-05T16:59:49.685Z,46.00
2022-12-05T17:09:54.271Z,40.30
2022-12-05T17:19:57.271Z,40.57
2022-12-05T17:30:01.698Z,38.03
2022-12-05T18:04:10.804Z,29.73
2022-12-05T18:14:14.103Z,39.53
2022-12-05T18:24:18.538Z,29.37
2022-12-05T18:34:21.534Z,29.73
2022-12-05T18:44:25.593Z,28.93
2022-12-05T18:54:28.561Z,25.33
2022-12-05T19:04:32.851Z,24.57
2022-12-05T19:14:35.799Z,22.70
2022-12-05T19:24:40.444Z,25.83
2022-12-05T19:34:43.911Z,27.13
2022-12-05T19:44:49.699Z,26.80
2022-12-05T19:54:52.833Z,28.57
2022-12-05T20:04:56.925Z,23.80
2022-12-05T20:14:59.942Z,26.97
2022-12-05T20:25:04.611Z,34.07
2022-12-05T20:35:07.967Z,33.03
2022-12-05T20:45:12.796Z,34.03
2022-12-05T20:55:16.081Z,31.90
2022-12-05T21:05:20.493Z,27.53
2022-12-05T21:15:23.351Z,27.93
2022-12-05T21:25:27.826Z,26.90
2022-12-05T21:35:30.896Z,25.97
2022-12-05T21:45:43.359Z,22.03
2022-12-05T21:55:48.150Z,24.23
2022-12-05T22:06:00.023Z,22.77
2022-12-05T22:16:04.673Z,25.57
2022-12-05T22:26:11.102Z,24.70
2022-12-05T22:36:16.523Z,31.10
2022-12-05T22:46:22.521Z,30.50
2022-12-05T22:56:27.559Z,33.97
2022-12-05T23:06:33.486Z,33.23
2022-12-05T23:16:36.824Z,30.97
2022-12-05T23:26:43.312Z,33.77
2022-12-05T23:36:46.324Z,28.53
2022-12-05T23:46:50.967Z,31.10
2022-12-05T23:56:55.113Z,32.37
